Time;durP1;ratioP1;P1;durP2;ratioP2;P2;SDS_P1;SDS_P2;PMS_P1;PMS_P2;Temp;Humidity;BMP_temperature;BMP_pressure;BME280_temperature;BME280_humidity;BME280_pressure;Samples;Min_cycle;Max_cycle;Signal;HPM_P1;HPM_P2
2021/01/13 00:00:35;;;;;;;2.56;2.19;;;;;;;18.19;44.05;100463.88;;;;-51
2021/01/13 00:03:35;;;;;;;2.38;2.08;;;;;;;18.17;44.08;100462.40;;;;-51
2021/01/13 00:06:35;;;;;;;2.58;2.33;;;;;;;18.14;44.09;100465.38;;;;-50
2021/01/13 00:09:35;;;;;;;2.52;2.32;;;;;;;18.13;44.15;100465.52;;;;-51
2021/01/13 00:12:35;;;;;;;2.29;2.08;;;;;;;18.11;44.17;100465.73;;;;-51
2021/01/13 00:15:35;;;;;;;2.56;2.30;;;;;;;18.10;44.17;100476.11;;;;-51
2021/01/13 00:18:35;;;;;;;2.43;2.16;;;;;;;18.06;44.21;100474.52;;;;-51
2021/01/13 00:21:35;;;;;;;2.77;2.40;;;;;;;18.05;44.14;100470.44;;;;-50
2021/01/13 00:24:35;;;;;;;2.64;2.34;;;;;;;18.03;44.14;100472.14;;;;-50
2021/01/13 00:27:35;;;;;;;2.42;2.21;;;;;;;18.00;44.16;100474.53;;;;-52
2021/01/13 00:30:35;;;;;;;2.60;2.39;;;;;;;17.98;44.17;100481.39;;;;-51
2021/01/13 00:33:35;;;;;;;3.45;2.10;;;;;;;17.96;44.14;100482.17;;;;-51
2021/01/13 00:36:35;;;;;;;2.60;2.28;;;;;;;17.94;44.17;100487.74;;;;-52
2021/01/13 00:39:35;;;;;;;2.77;2.30;;;;;;;17.92;44.22;100493.39;;;;-51
2021/01/13 00:42:35;;;;;;;3.29;2.23;;;;;;;17.90;44.21;100495.23;;;;-51
2021/01/13 00:45:35;;;;;;;2.41;2.17;;;;;;;17.87;44.19;100498.28;;;;-51
2021/01/13 00:48:35;;;;;;;2.47;2.10;;;;;;;17.86;44.20;100502.06;;;;-50
2021/01/13 00:51:35;;;;;;;2.67;2.09;;;;;;;17.83;44.25;100500.90;;;;-50
2021/01/13 00:54:35;;;;;;;2.71;2.17;;;;;;;17.82;44.24;100504.41;;;;-51
2021/01/13 00:57:35;;;;;;;3.18;2.25;;;;;;;17.80;44.32;100504.53;;;;-50
2021/01/13 01:00:35;;;;;;;2.27;2.07;;;;;;;17.79;44.22;100503.57;;;;-50
2021/01/13 01:03:35;;;;;;;3.00;2.18;;;;;;;17.77;44.30;100505.97;;;;-51
2021/01/13 01:06:35;;;;;;;2.29;2.09;;;;;;;17.76;44.21;100506.99;;;;-50
2021/01/13 01:09:35;;;;;;;2.76;2.10;;;;;;;17.74;44.32;100506.84;;;;-50
2021/01/13 01:12:35;;;;;;;2.53;2.11;;;;;;;17.71;44.29;100504.83;;;;-50
2021/01/13 01:15:35;;;;;;;2.77;2.13;;;;;;;17.69;44.29;100515.66;;;;-52
2021/01/13 01:18:35;;;;;;;2.38;2.14;;;;;;;17.68;44.31;100517.04;;;;-51
2021/01/13 01:21:35;;;;;;;2.59;2.11;;;;;;;17.66;44.30;100521.27;;;;-51
2021/01/13 01:24:35;;;;;;;2.37;2.09;;;;;;;17.64;44.29;100522.73;;;;-51
2021/01/13 01:27:35;;;;;;;2.31;2.11;;;;;;;17.62;44.24;100531.38;;;;-51
2021/01/13 01:30:35;;;;;;;2.20;2.00;;;;;;;17.60;44.26;100533.13;;;;-57
2021/01/13 01:33:35;;;;;;;2.75;2.10;;;;;;;17.59;44.30;100540.38;;;;-51
2021/01/13 01:36:35;;;;;;;2.20;2.00;;;;;;;17.58;44.30;100536.17;;;;-51
2021/01/13 01:39:35;;;;;;;2.55;2.17;;;;;;;17.56;44.29;100540.11;;;;-51
2021/01/13 01:42:35;;;;;;;2.30;2.10;;;;;;;17.54;44.37;100540.64;;;;-50
2021/01/13 01:45:35;;;;;;;2.21;1.99;;;;;;;17.52;44.37;100545.87;;;;-50
2021/01/13 01:48:35;;;;;;;2.34;2.00;;;;;;;17.50;44.30;100546.98;;;;-51
2021/01/13 01:51:35;;;;;;;2.34;2.14;;;;;;;17.48;44.28;100546.54;;;;-51
2021/01/13 01:54:35;;;;;;;2.38;2.08;;;;;;;17.47;44.35;100545.78;;;;-51
2021/01/13 01:57:35;;;;;;;2.43;2.23;;;;;;;17.46;44.34;100551.77;;;;-51
2021/01/13 02:00:35;;;;;;;2.89;2.14;;;;;;;17.44;44.39;100550.13;;;;-57
2021/01/13 02:03:35;;;;;;;2.21;2.01;;;;;;;17.42;44.40;100552.44;;;;-57
2021/01/13 02:06:35;;;;;;;2.67;2.13;;;;;;;17.41;44.41;100554.19;;;;-58
2021/01/13 02:10:35;;;;;;;2.43;2.13;;;;;;;17.38;44.34;100559.91;;;;-57
2021/01/13 02:13:35;;;;;;;2.30;2.10;;;;;;;17.37;44.39;100555.20;;;;-57
2021/01/13 02:16:35;;;;;;;2.18;1.98;;;;;;;17.35;44.38;100552.17;;;;-57
2021/01/13 02:19:35;;;;;;;2.30;2.10;;;;;;;17.34;44.37;100553.03;;;;-58
2021/01/13 02:22:35;;;;;;;2.15;1.89;;;;;;;17.32;44.39;100548.70;;;;-57
2021/01/13 02:25:35;;;;;;;2.21;2.00;;;;;;;17.31;44.34;100547.33;;;;-51
2021/01/13 02:29:35;;;;;;;2.11;1.91;;;;;;;17.29;44.34;100559.28;;;;-51
2021/01/13 02:32:35;;;;;;;3.83;1.99;;;;;;;17.28;44.40;100558.68;;;;-51
2021/01/13 02:35:35;;;;;;;2.10;1.90;;;;;;;17.26;44.38;100563.70;;;;-51
2021/01/13 02:38:35;;;;;;;2.01;1.83;;;;;;;17.25;44.38;100561.07;;;;-51
2021/01/13 02:41:35;;;;;;;2.38;2.01;;;;;;;17.24;44.39;100561.84;;;;-51
2021/01/13 02:44:35;;;;;;;2.19;1.99;;;;;;;17.23;44.38;100564.44;;;;-52
2021/01/13 02:50:35;;;;;;;2.29;2.07;;;;;;;17.21;44.33;100565.38;;;;-51
2021/01/13 02:53:35;;;;;;;2.20;2.00;;;;;;;17.21;44.37;100564.48;;;;-51
2021/01/13 02:56:35;;;;;;;2.11;1.91;;;;;;;17.19;44.33;100565.82;;;;-51
2021/01/13 02:59:35;;;;;;;3.30;2.07;;;;;;;17.18;44.37;100571.94;;;;-51
2021/01/13 03:02:36;;;;;;;2.17;1.97;;;;;;;17.16;44.34;100574.91;;;;-57
2021/01/13 03:05:35;;;;;;;2.23;2.00;;;;;;;17.16;44.41;100582.27;;;;-57
2021/01/13 03:08:35;;;;;;;2.20;2.00;;;;;;;17.14;44.35;100581.38;;;;-57
2021/01/13 03:11:35;;;;;;;2.29;2.08;;;;;;;17.13;44.39;100582.80;;;;-51
2021/01/13 03:14:35;;;;;;;2.15;1.95;;;;;;;17.12;44.37;100582.28;;;;-51
2021/01/13 03:17:35;;;;;;;2.17;1.91;;;;;;;17.11;44.38;100591.91;;;;-50
2021/01/13 03:20:35;;;;;;;2.15;1.95;;;;;;;17.09;44.40;100586.37;;;;-51
2021/01/13 03:23:35;;;;;;;2.67;2.09;;;;;;;17.08;44.40;100593.81;;;;-51
2021/01/13 03:26:35;;;;;;;2.35;2.09;;;;;;;17.07;44.42;100591.59;;;;-51
2021/01/13 03:29:35;;;;;;;2.09;1.91;;;;;;;17.06;44.42;100597.09;;;;-51
2021/01/13 03:32:35;;;;;;;2.43;2.04;;;;;;;17.05;44.40;100598.12;;;;-51
2021/01/13 03:35:35;;;;;;;2.27;2.04;;;;;;;17.04;44.38;100600.30;;;;-50
2021/01/13 03:38:35;;;;;;;2.11;1.92;;;;;;;17.03;44.39;100599.61;;;;-51
2021/01/13 03:41:35;;;;;;;1.89;1.79;;;;;;;17.02;44.42;100599.29;;;;-51
2021/01/13 03:44:35;;;;;;;2.88;2.13;;;;;;;16.99;44.49;100601.40;;;;-51
2021/01/13 03:47:35;;;;;;;2.41;2.07;;;;;;;16.99;44.39;100603.42;;;;-52
2021/01/13 03:51:35;;;;;;;2.17;1.97;;;;;;;16.99;44.42;100605.45;;;;-51
2021/01/13 03:54:35;;;;;;;2.35;1.90;;;;;;;16.97;44.41;100609.38;;;;-51
2021/01/13 03:57:35;;;;;;;2.58;2.16;;;;;;;16.96;44.40;100608.00;;;;-50
2021/01/13 04:01:35;;;;;;;2.35;2.10;;;;;;;16.93;44.45;100602.37;;;;-51
2021/01/13 04:04:35;;;;;;;1.97;1.85;;;;;;;16.94;44.41;100604.23;;;;-51
2021/01/13 04:09:35;;;;;;;2.11;1.91;;;;;;;16.91;44.45;100620.51;;;;-51
2021/01/13 04:12:35;;;;;;;1.81;1.70;;;;;;;16.91;44.44;100620.19;;;;-51
2021/01/13 04:15:35;;;;;;;2.16;1.96;;;;;;;16.91;44.39;100610.39;;;;-51
2021/01/13 04:18:35;;;;;;;2.03;1.83;;;;;;;16.88;44.46;100607.92;;;;-57
2021/01/13 04:21:35;;;;;;;2.00;1.80;;;;;;;16.88;44.47;100611.41;;;;-51
2021/01/13 04:24:35;;;;;;;2.34;2.00;;;;;;;16.87;44.47;100615.73;;;;-50
2021/01/13 04:27:35;;;;;;;2.12;1.92;;;;;;;16.85;44.46;100614.27;;;;-51
2021/01/13 04:30:35;;;;;;;2.27;2.07;;;;;;;16.86;44.40;100618.48;;;;-51
2021/01/13 04:33:35;;;;;;;2.21;2.01;;;;;;;16.84;44.39;100620.14;;;;-51
2021/01/13 04:36:35;;;;;;;2.14;1.94;;;;;;;16.84;44.41;100617.14;;;;-51
2021/01/13 04:39:35;;;;;;;2.19;1.98;;;;;;;16.82;44.44;100617.92;;;;-51
2021/01/13 04:42:35;;;;;;;2.00;1.87;;;;;;;16.82;44.42;100619.30;;;;-51
2021/01/13 04:45:35;;;;;;;2.13;1.93;;;;;;;16.81;44.46;100618.72;;;;-51
2021/01/13 04:48:35;;;;;;;2.37;1.86;;;;;;;16.80;44.54;100626.50;;;;-51
2021/01/13 04:51:35;;;;;;;2.26;2.05;;;;;;;16.78;44.48;100627.60;;;;-51
2021/01/13 04:54:35;;;;;;;2.23;1.99;;;;;;;16.77;44.47;100630.27;;;;-50
2021/01/13 04:57:35;;;;;;;2.19;1.99;;;;;;;16.77;44.46;100632.84;;;;-51
2021/01/13 05:01:35;;;;;;;2.12;1.92;;;;;;;16.77;44.53;100638.52;;;;-52
2021/01/13 05:04:35;;;;;;;2.18;1.97;;;;;;;16.75;44.42;100639.37;;;;-57
2021/01/13 05:07:35;;;;;;;1.89;1.79;;;;;;;16.74;44.46;100645.72;;;;-57
2021/01/13 05:10:35;;;;;;;2.08;1.90;;;;;;;16.73;44.46;100646.61;;;;-57
2021/01/13 05:13:35;;;;;;;2.23;1.80;;;;;;;16.73;44.47;100650.08;;;;-57
2021/01/13 05:16:35;;;;;;;2.10;1.87;;;;;;;16.72;44.44;100643.09;;;;-58
2021/01/13 05:19:35;;;;;;;2.18;1.98;;;;;;;16.71;44.45;100643.81;;;;-57
2021/01/13 05:24:35;;;;;;;2.10;1.90;;;;;;;16.70;44.43;100641.75;;;;-57
2021/01/13 05:27:35;;;;;;;2.06;1.86;;;;;;;16.68;44.40;100637.59;;;;-57
2021/01/13 05:30:35;;;;;;;2.10;1.90;;;;;;;16.68;44.43;100643.41;;;;-57
2021/01/13 05:33:35;;;;;;;2.35;1.81;;;;;;;16.65;44.44;100639.08;;;;-51
2021/01/13 05:36:35;;;;;;;2.11;1.91;;;;;;;16.65;44.42;100636.56;;;;-51
2021/01/13 05:39:35;;;;;;;2.03;1.83;;;;;;;16.65;44.47;100643.92;;;;-57
2021/01/13 05:42:35;;;;;;;2.12;1.72;;;;;;;16.65;44.48;100649.75;;;;-51
2021/01/13 05:45:35;;;;;;;1.95;1.85;;;;;;;16.64;44.40;100642.67;;;;-51
2021/01/13 05:48:35;;;;;;;2.01;1.81;;;;;;;16.62;44.43;100637.57;;;;-51
2021/01/13 05:51:35;;;;;;;2.17;1.97;;;;;;;16.63;44.48;100637.25;;;;-52
2021/01/13 05:54:35;;;;;;;2.24;1.80;;;;;;;16.61;44.42;100634.95;;;;-51
2021/01/13 05:57:35;;;;;;;1.96;1.83;;;;;;;16.61;44.39;100638.83;;;;-51
2021/01/13 06:00:35;;;;;;;1.99;1.84;;;;;;;16.60;44.43;100642.02;;;;-51
2021/01/13 06:03:35;;;;;;;2.00;1.80;;;;;;;16.59;44.43;100639.19;;;;-57
2021/01/13 06:06:35;;;;;;;2.19;1.99;;;;;;;16.59;44.45;100636.84;;;;-57
2021/01/13 06:09:35;;;;;;;2.19;1.92;;;;;;;16.58;44.45;100638.42;;;;-51
2021/01/13 06:12:35;;;;;;;1.83;1.73;;;;;;;16.57;44.42;100644.73;;;;-51
2021/01/13 06:15:35;;;;;;;2.11;1.91;;;;;;;16.57;44.42;100645.94;;;;-51
2021/01/13 06:18:35;;;;;;;2.12;1.80;;;;;;;16.57;44.42;100646.42;;;;-51
2021/01/13 06:21:35;;;;;;;2.10;1.90;;;;;;;16.59;44.42;100650.83;;;;-57
2021/01/13 06:24:35;;;;;;;1.86;1.75;;;;;;;16.59;44.44;100656.50;;;;-51
2021/01/13 06:27:35;;;;;;;1.83;1.73;;;;;;;16.61;44.50;100659.62;;;;-57
2021/01/13 06:30:35;;;;;;;2.04;1.81;;;;;;;16.62;44.45;100654.05;;;;-51
2021/01/13 06:33:36;;;;;;;1.90;1.70;;;;;;;16.64;44.40;100657.36;;;;-51
2021/01/13 06:36:35;;;;;;;6.43;2.49;;;;;;;16.54;42.37;100663.41;;;;-50
2021/01/13 06:39:35;;;;;;;4.61;3.74;;;;;;;16.07;39.98;100666.02;;;;-51
2021/01/13 06:42:35;;;;;;;6.56;4.18;;;;;;;15.78;39.19;100665.80;;;;-51
2021/01/13 06:45:35;;;;;;;5.75;3.73;;;;;;;15.99;40.97;100662.09;;;;-52
2021/01/13 06:48:35;;;;;;;4.73;3.29;;;;;;;16.14;41.72;100665.88;;;;-49
2021/01/13 06:51:35;;;;;;;4.11;3.20;;;;;;;16.26;42.25;100671.95;;;;-51
2021/01/13 06:54:35;;;;;;;3.45;2.82;;;;;;;16.33;42.42;100672.53;;;;-54
2021/01/13 06:57:35;;;;;;;3.74;2.76;;;;;;;16.39;42.57;100673.64;;;;-56
2021/01/13 07:00:35;;;;;;;4.72;2.79;;;;;;;16.45;42.67;100676.73;;;;-55
2021/01/13 07:03:35;;;;;;;3.28;2.53;;;;;;;16.50;42.76;100674.44;;;;-55
2021/01/13 07:06:35;;;;;;;3.25;2.67;;;;;;;16.53;42.83;100680.72;;;;-56
2021/01/13 07:09:35;;;;;;;4.27;2.43;;;;;;;16.55;42.87;100681.81;;;;-56
2021/01/13 07:12:35;;;;;;;3.56;2.60;;;;;;;16.57;42.91;100682.52;;;;-56
2021/01/13 07:15:35;;;;;;;3.27;2.29;;;;;;;16.59;42.99;100684.50;;;;-55
2021/01/13 07:18:35;;;;;;;4.83;2.39;;;;;;;16.61;43.12;100682.27;;;;-53
2021/01/13 07:21:35;;;;;;;4.45;2.61;;;;;;;16.59;43.15;100676.41;;;;-50
2021/01/13 07:24:35;;;;;;;3.27;2.47;;;;;;;16.60;43.14;100681.78;;;;-51
2021/01/13 07:27:35;;;;;;;3.71;2.41;;;;;;;16.60;43.15;100684.91;;;;-56
2021/01/13 07:30:35;;;;;;;3.77;2.47;;;;;;;16.61;43.20;100684.14;;;;-60
2021/01/13 07:33:35;;;;;;;3.71;2.58;;;;;;;16.62;43.08;100684.41;;;;-51
2021/01/13 07:36:35;;;;;;;4.70;2.41;;;;;;;16.63;43.20;100686.53;;;;-51
2021/01/13 07:39:35;;;;;;;8.45;2.71;;;;;;;16.64;43.52;100684.75;;;;-52
2021/01/13 07:44:35;;;;;;;4.41;2.73;;;;;;;16.67;43.53;100690.91;;;;-51
2021/01/13 07:47:35;;;;;;;7.07;2.45;;;;;;;16.67;43.42;100693.41;;;;-59
2021/01/13 07:51:35;;;;;;;6.34;2.57;;;;;;;16.66;43.42;100692.03;;;;-52
2021/01/13 07:54:35;;;;;;;5.48;2.57;;;;;;;16.66;43.42;100689.77;;;;-51
2021/01/13 07:57:35;;;;;;;4.14;2.31;;;;;;;16.66;43.35;100689.08;;;;-57
2021/01/13 08:00:36;;;;;;;4.86;2.22;;;;;;;16.66;43.38;100685.36;;;;-57
2021/01/13 08:03:35;;;;;;;4.71;2.42;;;;;;;16.65;43.42;100680.02;;;;-57
2021/01/13 08:08:35;;;;;;;3.21;2.14;;;;;;;16.63;43.39;100677.22;;;;-57
2021/01/13 08:13:36;;;;;;;3.43;2.22;;;;;;;16.64;43.44;100685.88;;;;-57
2021/01/13 08:16:35;;;;;;;3.48;2.21;;;;;;;16.63;43.45;100690.01;;;;-57
2021/01/13 08:19:37;;;;;;;3.30;2.31;;;;;;;16.62;43.47;100688.83;;;;-59
2021/01/13 08:22:35;;;;;;;3.09;2.28;;;;;;;16.61;43.51;100687.20;;;;-59
2021/01/13 08:25:36;;;;;;;3.78;2.41;;;;;;;16.61;43.45;100688.26;;;;-59
2021/01/13 08:28:35;;;;;;;4.09;2.23;;;;;;;16.60;43.46;100692.95;;;;-57
2021/01/13 08:31:35;;;;;;;2.87;2.19;;;;;;;16.60;43.50;100696.15;;;;-59
2021/01/13 08:34:35;;;;;;;2.95;2.19;;;;;;;16.59;43.51;100699.46;;;;-59
2021/01/13 08:37:35;;;;;;;3.03;2.25;;;;;;;16.58;43.56;100701.48;;;;-59
2021/01/13 08:40:37;;;;;;;2.91;2.30;;;;;;;16.57;43.55;100710.58;;;;-59
2021/01/13 08:43:35;;;;;;;2.67;2.25;;;;;;;16.57;43.55;100710.98;;;;-51
2021/01/13 08:46:35;;;;;;;2.71;2.25;;;;;;;16.56;43.62;100710.17;;;;-51
2021/01/13 08:49:35;;;;;;;2.73;2.15;;;;;;;16.56;43.57;100708.77;;;;-52
2021/01/13 08:52:35;;;;;;;3.53;2.10;;;;;;;16.55;43.60;100711.11;;;;-59
2021/01/13 08:55:35;;;;;;;2.83;2.05;;;;;;;16.54;43.62;100716.20;;;;-59
2021/01/13 08:58:35;;;;;;;2.88;2.17;;;;;;;16.53;43.62;100712.92;;;;-59
2021/01/13 09:01:35;;;;;;;3.06;2.19;;;;;;;16.53;43.62;100713.65;;;;-60
2021/01/13 09:04:35;;;;;;;2.66;2.02;;;;;;;16.52;43.63;100708.30;;;;-59
2021/01/13 09:07:35;;;;;;;2.21;1.93;;;;;;;16.51;43.67;100703.89;;;;-59
2021/01/13 09:10:35;;;;;;;2.52;2.07;;;;;;;16.51;43.68;100718.70;;;;-59
2021/01/13 09:13:35;;;;;;;3.67;2.01;;;;;;;16.49;43.67;100709.52;;;;-59
2021/01/13 09:16:35;;;;;;;2.26;2.01;;;;;;;16.49;43.70;100709.91;;;;-59
2021/01/13 09:19:35;;;;;;;2.19;1.94;;;;;;;16.48;43.65;100711.93;;;;-51
2021/01/13 09:22:35;;;;;;;2.83;2.07;;;;;;;16.49;43.63;100711.77;;;;-51
2021/01/13 09:25:35;;;;;;;2.37;1.91;;;;;;;16.48;43.73;100712.09;;;;-59
2021/01/13 09:28:35;;;;;;;2.45;2.09;;;;;;;16.47;43.71;100714.16;;;;-59
2021/01/13 09:31:35;;;;;;;2.39;2.09;;;;;;;16.47;43.71;100720.95;;;;-60
2021/01/13 09:34:35;;;;;;;2.69;1.99;;;;;;;16.46;43.70;100720.13;;;;-59
2021/01/13 09:37:35;;;;;;;2.38;2.17;;;;;;;16.45;43.80;100716.86;;;;-59
2021/01/13 09:40:35;;;;;;;3.03;2.21;;;;;;;16.44;43.77;100712.97;;;;-59
2021/01/13 09:43:35;;;;;;;2.52;1.97;;;;;;;16.44;43.80;100718.95;;;;-51
2021/01/13 09:46:35;;;;;;;2.20;2.00;;;;;;;16.44;43.74;100717.90;;;;-51
2021/01/13 09:49:35;;;;;;;2.30;2.10;;;;;;;16.42;43.86;100722.06;;;;-59
2021/01/13 09:52:35;;;;;;;4.55;2.23;;;;;;;16.45;43.95;100726.56;;;;-53
2021/01/13 09:55:35;;;;;;;5.53;2.18;;;;;;;16.49;44.30;100731.03;;;;-53
2021/01/13 09:58:35;;;;;;;5.03;2.15;;;;;;;16.56;44.67;100731.73;;;;-49
2021/01/13 10:01:36;;;;;;;5.79;2.09;;;;;;;16.63;45.16;100726.98;;;;-44
2021/01/13 10:04:35;;;;;;;4.59;2.34;;;;;;;16.67;44.94;100726.19;;;;-46
2021/01/13 10:07:35;;;;;;;7.37;2.41;;;;;;;16.73;45.27;100733.77;;;;-50
2021/01/13 10:10:35;;;;;;;4.89;2.11;;;;;;;16.77;44.67;100730.54;;;;-52
2021/01/13 10:13:35;;;;;;;10.37;2.47;;;;;;;16.83;45.30;100728.35;;;;-56
2021/01/13 10:16:35;;;;;;;5.22;2.33;;;;;;;16.90;44.64;100727.27;;;;-54
2021/01/13 10:19:35;;;;;;;5.52;2.41;;;;;;;16.96;44.46;100731.38;;;;-51
2021/01/13 10:22:35;;;;;;;5.55;2.25;;;;;;;17.03;44.93;100727.70;;;;-46
2021/01/13 10:25:35;;;;;;;5.13;2.27;;;;;;;17.09;44.94;100723.30;;;;-52
2021/01/13 10:28:35;;;;;;;5.05;2.19;;;;;;;17.15;44.94;100727.14;;;;-47
2021/01/13 10:31:35;;;;;;;2.81;1.96;;;;;;;17.21;45.01;100721.92;;;;-50
2021/01/13 10:34:35;;;;;;;2.93;1.90;;;;;;;17.26;44.87;100720.06;;;;-50
2021/01/13 10:37:35;;;;;;;3.62;2.08;;;;;;;17.32;44.89;100718.23;;;;-46
2021/01/13 10:40:35;;;;;;;2.65;1.99;;;;;;;17.38;44.99;100712.92;;;;-49
2021/01/13 10:43:35;;;;;;;2.61;2.07;;;;;;;17.42;44.87;100706.77;;;;-48
2021/01/13 10:46:35;;;;;;;3.41;2.07;;;;;;;17.47;44.68;100707.66;;;;-63
2021/01/13 10:49:35;;;;;;;3.26;2.01;;;;;;;17.51;44.64;100699.88;;;;-61
2021/01/13 10:52:35;;;;;;;3.11;2.13;;;;;;;17.56;44.83;100698.69;;;;-58
2021/01/13 10:55:35;;;;;;;5.35;2.13;;;;;;;17.60;44.61;100691.22;;;;-53
2021/01/13 10:58:35;;;;;;;5.15;1.89;;;;;;;17.62;44.22;100696.73;;;;-53
2021/01/13 11:01:35;;;;;;;2.88;2.11;;;;;;;17.63;44.25;100683.56;;;;-53
2021/01/13 11:04:35;;;;;;;3.01;1.90;;;;;;;17.65;44.29;100680.36;;;;-55
2021/01/13 11:07:35;;;;;;;3.02;1.95;;;;;;;17.68;44.26;100686.50;;;;-54
2021/01/13 11:10:36;;;;;;;4.41;1.79;;;;;;;17.70;44.22;100681.73;;;;-54
2021/01/13 11:13:35;;;;;;;4.37;1.79;;;;;;;17.72;44.33;100676.90;;;;-53
2021/01/13 11:16:35;;;;;;;3.04;2.05;;;;;;;17.75;44.20;100671.62;;;;-50
2021/01/13 11:19:35;;;;;;;2.64;1.96;;;;;;;17.77;44.26;100670.11;;;;-50
2021/01/13 11:22:45;;;;;;;3.38;1.87;;;;;;;17.80;44.21;100663.98;;;;-50
2021/01/13 11:25:36;;;;;;;1.99;1.67;;;;;;;17.82;44.15;100653.56;;;;-50
2021/01/13 11:28:35;;;;;;;2.17;1.80;;;;;;;17.83;44.18;100654.20;;;;-50
2021/01/13 11:31:35;;;;;;;2.69;1.87;;;;;;;17.85;44.04;100652.04;;;;-51
2021/01/13 11:34:35;;;;;;;2.20;1.75;;;;;;;17.88;44.12;100647.45;;;;-50
2021/01/13 11:37:35;;;;;;;2.54;1.89;;;;;;;17.89;44.03;100638.97;;;;-50
2021/01/13 11:40:35;;;;;;;2.93;1.89;;;;;;;17.92;44.08;100632.77;;;;-54
2021/01/13 11:43:35;;;;;;;1.88;1.68;;;;;;;17.94;44.12;100630.36;;;;-54
2021/01/13 11:46:35;;;;;;;3.93;1.80;;;;;;;17.96;44.08;100629.66;;;;-54
2021/01/13 11:49:36;;;;;;;2.45;1.79;;;;;;;17.98;44.05;100630.18;;;;-54
2021/01/13 11:52:35;;;;;;;2.07;1.79;;;;;;;18.01;44.02;100627.94;;;;-55
2021/01/13 11:55:35;;;;;;;1.91;1.63;;;;;;;18.03;44.01;100626.27;;;;-54
2021/01/13 11:58:35;;;;;;;2.16;1.85;;;;;;;18.06;44.02;100628.44;;;;-54
2021/01/13 12:01:35;;;;;;;2.03;1.67;;;;;;;18.10;43.99;100622.98;;;;-54
2021/01/13 12:04:35;;;;;;;2.28;1.74;;;;;;;18.12;44.10;100613.93;;;;-54
2021/01/13 12:07:35;;;;;;;2.39;1.83;;;;;;;18.15;43.96;100608.45;;;;-54
2021/01/13 12:10:35;;;;;;;1.99;1.79;;;;;;;18.19;44.01;100603.55;;;;-54
2021/01/13 12:13:35;;;;;;;3.94;1.87;;;;;;;18.20;43.96;100597.42;;;;-54
2021/01/13 12:16:35;;;;;;;1.91;1.70;;;;;;;18.23;43.88;100597.61;;;;-52
2021/01/13 12:19:35;;;;;;;2.25;1.64;;;;;;;18.26;43.89;100591.39;;;;-51
2021/01/13 12:22:35;;;;;;;2.17;1.69;;;;;;;18.26;43.85;100581.09;;;;-50
2021/01/13 12:25:35;;;;;;;1.87;1.61;;;;;;;18.27;43.85;100576.73;;;;-50
2021/01/13 12:28:35;;;;;;;2.22;1.78;;;;;;;18.29;43.91;100570.36;;;;-50
2021/01/13 12:31:35;;;;;;;2.13;1.75;;;;;;;18.29;43.84;100564.43;;;;-50
2021/01/13 12:34:35;;;;;;;2.09;1.67;;;;;;;18.31;43.92;100557.23;;;;-50
2021/01/13 12:37:35;;;;;;;1.84;1.66;;;;;;;18.32;43.86;100557.16;;;;-50
2021/01/13 12:40:35;;;;;;;3.39;2.10;;;;;;;18.35;44.23;100554.12;;;;-51
2021/01/13 12:43:35;;;;;;;3.57;2.23;;;;;;;18.37;44.17;100551.72;;;;-53
2021/01/13 12:46:35;;;;;;;2.93;2.06;;;;;;;18.38;43.95;100544.34;;;;-52
2021/01/13 12:49:35;;;;;;;3.59;1.87;;;;;;;18.39;43.92;100540.88;;;;-53
2021/01/13 12:52:35;;;;;;;2.91;1.86;;;;;;;18.39;43.87;100538.84;;;;-53
2021/01/13 12:55:35;;;;;;;1.91;1.71;;;;;;;18.39;43.88;100528.45;;;;-53
2021/01/13 12:58:35;;;;;;;2.21;1.77;;;;;;;18.39;43.90;100524.97;;;;-54
2021/01/13 13:01:35;;;;;;;2.03;1.60;;;;;;;18.39;43.85;100523.84;;;;-61
2021/01/13 13:04:35;;;;;;;2.37;1.91;;;;;;;18.40;43.95;100516.94;;;;-49
2021/01/13 13:07:35;;;;;;;2.49;1.80;;;;;;;18.45;44.03;100516.66;;;;-51
2021/01/13 13:10:35;;;;;;;3.59;2.26;;;;;;;18.46;43.60;100512.38;;;;-58
2021/01/13 13:13:35;;;;;;;2.59;1.90;;;;;;;18.46;43.78;100511.33;;;;-57
2021/01/13 13:16:35;;;;;;;3.81;1.94;;;;;;;18.47;43.75;100511.11;;;;-56
2021/01/13 13:19:35;;;;;;;2.12;1.71;;;;;;;18.47;43.79;100511.77;;;;-58
2021/01/13 13:22:35;;;;;;;3.57;1.80;;;;;;;18.48;43.81;100505.02;;;;-58
2021/01/13 13:25:35;;;;;;;2.35;1.80;;;;;;;18.49;43.81;100502.09;;;;-58
2021/01/13 13:28:35;;;;;;;3.79;1.79;;;;;;;18.50;43.82;100501.96;;;;-57
2021/01/13 13:31:35;;;;;;;3.22;1.79;;;;;;;18.51;43.82;100500.98;;;;-58
2021/01/13 13:34:35;;;;;;;3.67;1.89;;;;;;;18.52;43.79;100498.66;;;;-58
2021/01/13 13:37:35;;;;;;;2.22;1.70;;;;;;;18.53;43.86;100500.47;;;;-57
2021/01/13 13:40:35;;;;;;;2.60;1.81;;;;;;;18.54;43.82;100502.00;;;;-56
2021/01/13 13:43:35;;;;;;;2.27;1.66;;;;;;;18.54;43.83;100494.13;;;;-58
2021/01/13 13:46:35;;;;;;;2.45;1.80;;;;;;;18.56;43.81;100490.75;;;;-57
2021/01/13 13:49:35;;;;;;;2.33;1.70;;;;;;;18.57;43.85;100488.23;;;;-58
2021/01/13 13:52:35;;;;;;;2.92;2.06;;;;;;;18.60;43.79;100488.44;;;;-61
2021/01/13 13:55:35;;;;;;;3.37;2.43;;;;;;;18.59;43.74;100480.24;;;;-50
2021/01/13 13:58:35;;;;;;;5.14;2.69;;;;;;;18.60;43.38;100478.70;;;;-51
2021/01/13 14:01:35;;;;;;;5.13;2.59;;;;;;;18.65;43.87;100475.81;;;;-52
2021/01/13 14:04:35;;;;;;;7.09;2.78;;;;;;;18.64;43.12;100467.70;;;;-48
2021/01/13 14:07:35;;;;;;;4.77;2.82;;;;;;;18.64;43.04;100469.00;;;;-50
2021/01/13 14:10:35;;;;;;;3.88;2.94;;;;;;;18.65;43.13;100466.16;;;;-59
2021/01/13 14:13:35;;;;;;;5.46;3.03;;;;;;;18.66;42.95;100464.88;;;;-50
2021/01/13 14:16:35;;;;;;;4.87;3.17;;;;;;;18.67;43.32;100454.16;;;;-50
2021/01/13 14:19:35;;;;;;;4.79;3.25;;;;;;;18.67;43.37;100447.17;;;;-61
2021/01/13 14:22:35;;;;;;;8.68;4.01;;;;;;;18.63;43.25;100447.06;;;;-51
2021/01/13 14:25:35;;;;;;;8.47;3.97;;;;;;;18.63;43.49;100445.92;;;;-57
2021/01/13 14:28:35;;;;;;;8.23;3.67;;;;;;;18.67;43.63;100441.74;;;;-58
2021/01/13 14:31:35;;;;;;;8.01;3.25;;;;;;;18.71;43.48;100433.09;;;;-58
2021/01/13 14:34:35;;;;;;;4.79;3.31;;;;;;;18.75;43.60;100436.55;;;;-58
2021/01/13 14:37:37;;;;;;;6.57;3.19;;;;;;;18.79;43.81;100432.39;;;;-55
2021/01/13 14:40:35;;;;;;;6.27;3.13;;;;;;;18.81;43.60;100427.37;;;;-56
2021/01/13 14:43:35;;;;;;;4.59;3.06;;;;;;;18.84;43.71;100419.35;;;;-54
2021/01/13 14:46:35;;;;;;;6.00;3.01;;;;;;;18.85;43.54;100420.75;;;;-58
2021/01/13 14:49:35;;;;;;;5.27;2.97;;;;;;;18.88;43.63;100422.30;;;;-50
2021/01/13 14:52:35;;;;;;;8.17;3.03;;;;;;;18.91;43.58;100421.78;;;;-49
2021/01/13 14:55:35;;;;;;;4.99;2.93;;;;;;;18.94;43.82;100417.81;;;;-60
2021/01/13 14:58:35;;;;;;;3.96;2.85;;;;;;;18.95;43.79;100415.00;;;;-55
2021/01/13 15:01:35;;;;;;;5.60;2.79;;;;;;;18.98;43.87;100411.27;;;;-57
2021/01/13 15:04:35;;;;;;;4.28;3.01;;;;;;;19.00;43.93;100407.63;;;;-56
2021/01/13 15:07:35;;;;;;;4.71;2.69;;;;;;;19.01;44.11;100406.59;;;;-53
2021/01/13 15:10:35;;;;;;;4.35;2.69;;;;;;;19.03;43.94;100404.01;;;;-56
2021/01/13 15:13:35;;;;;;;12.37;2.83;;;;;;;19.03;43.81;100407.42;;;;-52
2021/01/13 15:16:35;;;;;;;6.53;2.60;;;;;;;19.04;43.79;100409.77;;;;-54
2021/01/13 15:19:35;;;;;;;4.74;2.54;;;;;;;19.08;43.77;100405.91;;;;-54
2021/01/13 15:22:35;;;;;;;7.33;2.79;;;;;;;19.08;43.66;100407.13;;;;-54
2021/01/13 15:25:35;;;;;;;4.63;2.47;;;;;;;19.09;43.87;100409.82;;;;-57
2021/01/13 15:28:35;;;;;;;5.59;2.67;;;;;;;19.12;44.00;100404.30;;;;-58
2021/01/13 15:31:35;;;;;;;5.26;2.51;;;;;;;19.15;44.08;100400.58;;;;-58
2021/01/13 15:34:35;;;;;;;3.89;2.58;;;;;;;19.17;44.02;100399.70;;;;-56
2021/01/13 15:37:35;;;;;;;3.65;2.41;;;;;;;19.18;44.04;100401.50;;;;-53
2021/01/13 15:40:35;;;;;;;4.29;2.53;;;;;;;19.19;43.98;100396.63;;;;-52
2021/01/13 15:43:35;;;;;;;4.02;2.47;;;;;;;19.20;44.11;100393.80;;;;-58
2021/01/13 15:46:35;;;;;;;3.66;2.38;;;;;;;19.20;44.04;100389.98;;;;-57
2021/01/13 15:49:35;;;;;;;4.29;2.45;;;;;;;19.23;44.05;100381.95;;;;-60
2021/01/13 15:52:35;;;;;;;2.89;2.31;;;;;;;19.24;44.10;100376.52;;;;-60
2021/01/13 15:55:38;;;;;;;3.15;2.45;;;;;;;19.25;44.10;100366.61;;;;-58
2021/01/13 15:58:35;;;;;;;4.32;2.60;;;;;;;19.23;43.88;100358.22;;;;-51
2021/01/13 16:01:35;;;;;;;4.97;2.65;;;;;;;19.24;43.53;100349.55;;;;-57
2021/01/13 16:04:35;;;;;;;10.29;2.77;;;;;;;19.26;43.62;100344.12;;;;-52
2021/01/13 16:07:35;;;;;;;7.45;2.61;;;;;;;19.27;43.92;100343.22;;;;-58
2021/01/13 16:10:35;;;;;;;6.02;2.55;;;;;;;19.28;43.89;100334.38;;;;-63
2021/01/13 16:13:35;;;;;;;6.99;2.69;;;;;;;19.30;43.75;100325.45;;;;-59
2021/01/13 16:16:35;;;;;;;5.45;2.25;;;;;;;19.28;43.60;100320.98;;;;-60
2021/01/13 16:19:35;;;;;;;5.25;2.31;;;;;;;19.26;43.50;100319.02;;;;-55
2021/01/13 16:22:35;;;;;;;3.27;2.27;;;;;;;19.28;43.76;100316.27;;;;-58
2021/01/13 16:25:35;;;;;;;4.99;2.34;;;;;;;19.29;43.90;100305.86;;;;-57
2021/01/13 16:28:35;;;;;;;3.37;2.23;;;;;;;19.30;43.86;100302.03;;;;-54
2021/01/13 16:31:35;;;;;;;6.57;2.72;;;;;;;19.26;43.31;100296.91;;;;-59
2021/01/13 16:34:35;;;;;;;5.61;2.86;;;;;;;19.23;42.96;100292.42;;;;-57
2021/01/13 16:37:35;;;;;;;9.22;2.85;;;;;;;19.16;42.84;100290.44;;;;-60
2021/01/13 16:40:35;;;;;;;9.23;2.63;;;;;;;19.19;43.10;100291.19;;;;-55
2021/01/13 16:43:35;;;;;;;5.94;2.73;;;;;;;19.22;43.22;100284.64;;;;-59
2021/01/13 16:46:35;;;;;;;6.95;2.70;;;;;;;19.21;42.90;100281.60;;;;-52
2021/01/13 16:49:35;;;;;;;5.36;2.80;;;;;;;19.22;42.52;100277.80;;;;-53
2021/01/13 16:52:35;;;;;;;3.87;2.63;;;;;;;19.23;43.02;100269.02;;;;-57
2021/01/13 16:55:35;;;;;;;4.71;2.47;;;;;;;19.24;43.17;100262.55;;;;-51
2021/01/13 16:58:35;;;;;;;2.84;2.25;;;;;;;19.27;42.94;100262.95;;;;-52
2021/01/13 17:01:35;;;;;;;4.39;2.51;;;;;;;19.28;43.10;100257.92;;;;-53